sensor_id;sensor_type;location;lat;lon;timestamp;pressure;altitude;pressure_sealevel;temperature;humidity
20424;BME280;10371;49.042;8.002;2022-12-18T00:00:42;101106.50;;;-6.75;100.00
20424;BME280;10371;49.042;8.002;2022-12-18T00:01:42;101102.22;;;-6.82;100.00
20424;BME280;10371;49.042;8.002;2022-12-18T00:02:42;101106.34;;;-6.88;100.00
20424;BME280;10371;49.042;8.002;2022-12-18T00:03:43;101101.28;;;-6.90;100.00
20424;BME280;10371;49.042;8.002;2022-12-18T00:04:43;101103.75;;;-6.96;100.00
20424;BME280;10371;49.042;8.002;2022-12-18T00:05:51;101102.94;;;-6.93;100.00
20424;BME280;10371;49.042;8.002;2022-12-18T00:06:52;101098.75;;;-6.90;100.00
20424;BME280;10371;49.042;8.002;2022-12-18T00:07:52;101088.59;;;-6.91;100.00
20424;BME280;10371;49.042;8.002;2022-12-18T00:08:54;101098.66;;;-6.99;100.00
20424;BME280;10371;49.042;8.002;2022-12-18T00:09:55;101093.59;;;-6.99;100.00
20424;BME280;10371;49.042;8.002;2022-12-18T00:11:03;101098.69;;;-6.96;100.00
20424;BME280;10371;49.042;8.002;2022-12-18T00:12:04;101101.16;;;-7.01;100.00
20424;BME280;10371;49.042;8.002;2022-12-18T00:13:04;101100.31;;;-7.01;100.00
20424;BME280;10371;49.042;8.002;2022-12-18T00:14:05;101093.50;;;-7.05;100.00
20424;BME280;10371;49.042;8.002;2022-12-18T00:15:05;101090.00;;;-7.13;100.00
20424;BME280;10371;49.042;8.002;2022-12-18T00:16:12;101095.06;;;-7.13;100.00
20424;BME280;10371;49.042;8.002;2022-12-18T00:17:12;101096.78;;;-7.12;100.00
20424;BME280;10371;49.042;8.002;2022-12-18T00:18:12;101107.06;;;-7.02;100.00
20424;BME280;10371;49.042;8.002;2022-12-18T00:19:14;101096.97;;;-6.97;100.00
20424;BME280;10371;49.042;8.002;2022-12-18T00:20:14;101098.72;;;-6.91;100.00
20424;BME280;10371;49.042;8.002;2022-12-18T00:21:14;101106.97;;;-7.06;100.00
20424;BME280;10371;49.042;8.002;2022-12-18T00:22:15;101104.41;;;-7.09;100.00
20424;BME280;10371;49.042;8.002;2022-12-18T00:23:15;101108.63;;;-7.10;100.00
20424;BME280;10371;49.042;8.002;2022-12-18T00:24:15;101112.88;;;-7.07;100.00
20424;BME280;10371;49.042;8.002;2022-12-18T00:25:15;101105.31;;;-7.07;100.00
20424;BME280;10371;49.042;8.002;2022-12-18T00:26:18;101106.09;;;-7.10;100.00
20424;BME280;10371;49.042;8.002;2022-12-18T00:27:19;101110.34;;;-7.07;100.00
20424;BME280;10371;49.042;8.002;2022-12-18T00:28:20;101112.78;;;-7.13;100.00
20424;BME280;10371;49.042;8.002;2022-12-18T00:29:20;101109.59;;;-7.00;100.00
20424;BME280;10371;49.042;8.002;2022-12-18T00:30:20;101112.97;;;-7.00;100.00
20424;BME280;10371;49.042;8.002;2022-12-18T00:31:23;101105.34;;;-7.04;100.00
20424;BME280;10371;49.042;8.002;2022-12-18T00:32:23;101106.13;;;-7.05;100.00
20424;BME280;10371;49.042;8.002;2022-12-18T00:33:24;101100.31;;;-7.01;100.00
20424;BME280;10371;49.042;8.002;2022-12-18T00:34:24;101108.78;;;-6.98;100.00
20424;BME280;10371;49.042;8.002;2022-12-18T00:35:24;101097.72;;;-7.06;100.00
20424;BME280;10371;49.042;8.002;2022-12-18T00:36:27;101107.06;;;-7.00;100.00
20424;BME280;10371;49.042;8.002;2022-12-18T00:37:28;101098.72;;;-6.93;100.00
20424;BME280;10371;49.042;8.002;2022-12-18T00:38:28;101115.56;;;-6.95;100.00
20424;BME280;10371;49.042;8.002;2022-12-18T00:39:29;101094.41;;;-7.00;100.00
20424;BME280;10371;49.042;8.002;2022-12-18T00:40:29;101102.81;;;-7.04;100.00
20424;BME280;10371;49.042;8.002;2022-12-18T00:41:29;101103.59;;;-7.05;100.00
20424;BME280;10371;49.042;8.002;2022-12-18T00:42:48;101107.78;;;-7.09;100.00
20424;BME280;10371;49.042;8.002;2022-12-18T00:43:57;101107.97;;;-6.95;100.00
20424;BME280;10371;49.042;8.002;2022-12-18T00:44:58;101100.50;;;-6.84;100.00
20424;BME280;10371;49.042;8.002;2022-12-18T00:45:58;101095.41;;;-6.87;100.00
20424;BME280;10371;49.042;8.002;2022-12-18T00:46:58;101100.41;;;-6.92;100.00
20424;BME280;10371;49.042;8.002;2022-12-18T00:47:58;101101.31;;;-6.85;100.00
20424;BME280;10371;49.042;8.002;2022-12-18T00:48:59;101095.38;;;-6.90;100.00
20424;BME280;10371;49.042;8.002;2022-12-18T00:49:59;101103.00;;;-6.86;100.00
20424;BME280;10371;49.042;8.002;2022-12-18T00:50:59;101100.47;;;-6.87;100.00
20424;BME280;10371;49.042;8.002;2022-12-18T00:52:00;101113.91;;;-6.93;100.00
20424;BME280;10371;49.042;8.002;2022-12-18T00:53:00;101105.38;;;-7.01;100.00
20424;BME280;10371;49.042;8.002;2022-12-18T00:54:00;101108.63;;;-7.08;100.00
20424;BME280;10371;49.042;8.002;2022-12-18T00:55:01;101107.06;;;-7.00;100.00
20424;BME280;10371;49.042;8.002;2022-12-18T00:56:01;101109.63;;;-6.99;100.00
20424;BME280;10371;49.042;8.002;2022-12-18T00:57:01;101112.91;;;-7.03;100.00
20424;BME280;10371;49.042;8.002;2022-12-18T00:58:02;101116.47;;;-6.90;100.00
20424;BME280;10371;49.042;8.002;2022-12-18T00:59:03;101108.84;;;-6.93;100.00
20424;BME280;10371;49.042;8.002;2022-12-18T01:00:05;101112.13;;;-7.00;100.00
20424;BME280;10371;49.042;8.002;2022-12-18T01:01:06;101106.19;;;-7.04;100.00
20424;BME280;10371;49.042;8.002;2022-12-18T01:02:06;101112.97;;;-7.01;100.00
20424;BME280;10371;49.042;8.002;2022-12-18T01:03:07;101116.41;;;-6.94;100.00
20424;BME280;10371;49.042;8.002;2022-12-18T01:04:07;101113.06;;;-6.93;100.00
20424;BME280;10371;49.042;8.002;2022-12-18T01:05:09;101121.50;;;-6.93;100.00
20424;BME280;10371;49.042;8.002;2022-12-18T01:06:11;101113.84;;;-6.99;100.00
20424;BME280;10371;49.042;8.002;2022-12-18T01:07:12;101113.72;;;-7.05;100.00
20424;BME280;10371;49.042;8.002;2022-12-18T01:08:12;101107.75;;;-7.10;100.00
20424;BME280;10371;49.042;8.002;2022-12-18T01:09:13;101105.38;;;-7.01;100.00
20424;BME280;10371;49.042;8.002;2022-12-18T01:10:13;101112.19;;;-6.94;100.00
20424;BME280;10371;49.042;8.002;2022-12-18T01:11:16;101112.16;;;-6.97;100.00
20424;BME280;10371;49.042;8.002;2022-12-18T01:12:17;101118.94;;;-6.94;100.00
20424;BME280;10371;49.042;8.002;2022-12-18T01:13:17;101110.44;;;-7.01;100.00
20424;BME280;10371;49.042;8.002;2022-12-18T01:14:17;101098.75;;;-6.90;100.00
20424;BME280;10371;49.042;8.002;2022-12-18T01:15:18;101109.66;;;-6.95;100.00
20424;BME280;10371;49.042;8.002;2022-12-18T01:16:19;101097.81;;;-6.97;100.00
20424;BME280;10371;49.042;8.002;2022-12-18T01:17:19;101102.19;;;-6.85;100.00
20424;BME280;10371;49.042;8.002;2022-12-18T01:18:19;101093.66;;;-6.93;100.00
20424;BME280;10371;49.042;8.002;2022-12-18T01:19:20;101098.00;;;-6.81;100.00
20424;BME280;10371;49.042;8.002;2022-12-18T01:20:20;101098.81;;;-6.84;100.00
20424;BME280;10371;49.042;8.002;2022-12-18T01:21:21;101098.75;;;-6.88;100.00
20424;BME280;10371;49.042;8.002;2022-12-18T01:22:22;101098.72;;;-6.93;100.00
20424;BME280;10371;49.042;8.002;2022-12-18T01:23:22;101106.31;;;-6.91;100.00
20424;BME280;10371;49.042;8.002;2022-12-18T01:24:23;101108.00;;;-6.92;100.00
20424;BME280;10371;49.042;8.002;2022-12-18T01:25:23;101112.19;;;-6.95;100.00
20424;BME280;10371;49.042;8.002;2022-12-18T01:26:24;101113.00;;;-6.98;100.00
20424;BME280;10371;49.042;8.002;2022-12-18T01:27:25;101116.41;;;-6.96;100.00
20424;BME280;10371;49.042;8.002;2022-12-18T01:28:25;101112.19;;;-6.94;100.00
20424;BME280;10371;49.042;8.002;2022-12-18T01:29:25;101112.97;;;-7.00;100.00
20424;BME280;10371;49.042;8.002;2022-12-18T01:30:26;101105.38;;;-7.01;100.00
20424;BME280;10371;49.042;8.002;2022-12-18T01:31:28;101107.09;;;-6.97;100.00
20424;BME280;10371;49.042;8.002;2022-12-18T01:32:30;101107.94;;;-6.98;100.00
20424;BME280;10371;49.042;8.002;2022-12-18T01:33:31;101091.94;;;-6.95;100.00
20424;BME280;10371;49.042;8.002;2022-12-18T01:34:31;101108.91;;;-6.87;100.00
20424;BME280;10371;49.042;8.002;2022-12-18T01:35:32;101108.06;;;-6.87;100.00
20424;BME280;10371;49.042;8.002;2022-12-18T01:36:35;101110.75;;;-6.73;100.00
20424;BME280;10371;49.042;8.002;2022-12-18T01:37:36;101105.66;;;-6.75;100.00
20424;BME280;10371;49.042;8.002;2022-12-18T01:38:36;101109.91;;;-6.74;100.00
20424;BME280;10371;49.042;8.002;2022-12-18T01:39:36;101105.56;;;-6.84;100.00
20424;BME280;10371;49.042;8.002;2022-12-18T01:40:36;101114.81;;;-6.86;100.00
20424;BME280;10371;49.042;8.002;2022-12-18T01:41:37;101108.97;;;-6.81;100.00
20424;BME280;10371;49.042;8.002;2022-12-18T01:42:57;101108.06;;;-6.87;100.00
20424;BME280;10371;49.042;8.002;2022-12-18T01:43:58;101109.78;;;-6.83;100.00
20424;BME280;10371;49.042;8.002;2022-12-18T01:46:14;101105.66;;;-6.77;100.00
20424;BME280;10371;49.042;8.002;2022-12-18T01:47:48;101103.97;;;-6.75;100.00
20424;BME280;10371;49.042;8.002;2022-12-18T01:48:52;101113.25;;;-6.75;100.00
20424;BME280;10371;49.042;8.002;2022-12-18T01:49:55;101112.34;;;-6.82;100.00
20424;BME280;10371;49.042;8.002;2022-12-18T01:50:56;101108.09;;;-6.84;100.00
20424;BME280;10371;49.042;8.002;2022-12-18T01:51:57;101113.19;;;-6.81;100.00
20424;BME280;10371;49.042;8.002;2022-12-18T01:53:13;101114.09;;;-6.75;100.00
20424;BME280;10371;49.042;8.002;2022-12-18T01:54:14;101107.28;;;-6.80;100.00
20424;BME280;10371;49.042;8.002;2022-12-18T01:55:17;101105.59;;;-6.81;100.00
20424;BME280;10371;49.042;8.002;2022-12-18T01:56:20;101109.84;;;-6.79;100.00
20424;BME280;10371;49.042;8.002;2022-12-18T01:57:22;101105.63;;;-6.80;100.00
20424;BME280;10371;49.042;8.002;2022-12-18T01:58:30;101103.84;;;-6.85;100.00
20424;BME280;10371;49.042;8.002;2022-12-18T01:59:33;101114.88;;;-6.80;100.00
20424;BME280;10371;49.042;8.002;2022-12-18T02:00:35;101109.00;;;-6.78;100.00
20424;BME280;10371;49.042;8.002;2022-12-18T02:01:36;101127.56;;;-6.79;100.00
20424;BME280;10371;49.042;8.002;2022-12-18T02:02:39;101110.63;;;-6.84;100.00
20424;BME280;10371;49.042;8.002;2022-12-18T02:03:44;101114.00;;;-6.84;100.00
20424;BME280;10371;49.042;8.002;2022-12-18T02:04:44;101114.84;;;-6.83;100.00
20424;BME280;10371;49.042;8.002;2022-12-18T02:06:07;101119.06;;;-6.84;100.00
20424;BME280;10371;49.042;8.002;2022-12-18T02:08:28;101112.38;;;-6.79;100.00
20424;BME280;10371;49.042;8.002;2022-12-18T02:09:45;101113.22;;;-6.80;100.00
20424;BME280;10371;49.042;8.002;2022-12-18T02:11:06;101118.28;;;-6.78;100.00
20424;BME280;10371;49.042;8.002;2022-12-18T02:12:17;101112.44;;;-6.72;100.00
20424;BME280;10371;49.042;8.002;2022-12-18T02:13:27;101112.41;;;-6.76;100.00
20424;BME280;10371;49.042;8.002;2022-12-18T02:14:56;101098.84;;;-6.81;100.00
20424;BME280;10371;49.042;8.002;2022-12-18T02:17:56;101107.28;;;-6.82;100.00
20424;BME280;10371;49.042;8.002;2022-12-18T02:19:00;101109.00;;;-6.78;100.00
20424;BME280;10371;49.042;8.002;2022-12-18T02:21:26;101117.47;;;-6.76;100.00
20424;BME280;10371;49.042;8.002;2022-12-18T02:23:40;101124.22;;;-6.76;100.00
20424;BME280;10371;49.042;8.002;2022-12-18T02:24:54;101117.44;;;-6.79;100.00
20424;BME280;10371;49.042;8.002;2022-12-18T02:26:04;101122.53;;;-6.76;100.00
20424;BME280;10371;49.042;8.002;2022-12-18T02:27:09;101113.28;;;-6.72;100.00
20424;BME280;10371;49.042;8.002;2022-12-18T02:28:11;101119.25;;;-6.68;100.00
20424;BME280;10371;49.042;8.002;2022-12-18T02:29:21;101105.75;;;-6.67;100.00
20424;BME280;10371;49.042;8.002;2022-12-18T02:30:23;101109.88;;;-6.76;100.00
20424;BME280;10371;49.042;8.002;2022-12-18T02:31:29;101114.09;;;-6.75;100.00
20424;BME280;10371;49.042;8.002;2022-12-18T02:32:34;101107.34;;;-6.76;100.00
20424;BME280;10371;49.042;8.002;2022-12-18T02:33:37;101108.25;;;-6.70;100.00
20424;BME280;10371;49.042;8.002;2022-12-18T02:34:40;101102.31;;;-6.72;100.00
20424;BME280;10371;49.042;8.002;2022-12-18T02:35:41;101108.25;;;-6.70;100.00
20424;BME280;10371;49.042;8.002;2022-12-18T02:36:44;101109.97;;;-6.63;100.00
20424;BME280;10371;49.042;8.002;2022-12-18T02:37:46;101101.56;;;-6.62;100.00
20424;BME280;10371;49.042;8.002;2022-12-18T02:38:47;101102.41;;;-6.60;100.00
20424;BME280;10371;49.042;8.002;2022-12-18T02:39:49;101100.78;;;-6.55;100.00
20424;BME280;10371;49.042;8.002;2022-12-18T02:40:53;101112.69;;;-6.48;100.00
20424;BME280;10371;49.042;8.002;2022-12-18T02:41:54;101111.84;;;-6.48;100.00
20424;BME280;10371;49.042;8.002;2022-12-18T02:42:54;101112.59;;;-6.57;100.00
20424;BME280;10371;49.042;8.002;2022-12-18T02:44:00;101114.31;;;-6.55;100.00
20424;BME280;10371;49.042;8.002;2022-12-18T02:45:01;101108.31;;;-6.61;100.00
20424;BME280;10371;49.042;8.002;2022-12-18T02:46:25;101117.63;;;-6.62;100.00
20424;BME280;10371;49.042;8.002;2022-12-18T02:47:31;101113.34;;;-6.66;100.00
20424;BME280;10371;49.042;8.002;2022-12-18T02:48:34;101112.47;;;-6.69;100.00
20424;BME280;10371;49.042;8.002;2022-12-18T02:50:10;101119.28;;;-6.65;100.00
20424;BME280;10371;49.042;8.002;2022-12-18T02:53:55;101121.00;;;-6.61;100.00
20424;BME280;10371;49.042;8.002;2022-12-18T02:56:42;101117.59;;;-6.63;100.00
20424;BME280;10371;49.042;8.002;2022-12-18T02:59:40;101112.53;;;-6.65;100.00
20424;BME280;10371;49.042;8.002;2022-12-18T03:00:57;101112.47;;;-6.69;100.00
20424;BME280;10371;49.042;8.002;2022-12-18T03:02:04;101106.53;;;-6.71;100.00
20424;BME280;10371;49.042;8.002;2022-12-18T03:03:14;101103.16;;;-6.72;100.00
20424;BME280;10371;49.042;8.002;2022-12-18T03:04:26;101107.41;;;-6.69;100.00
20424;BME280;10371;49.042;8.002;2022-12-18T03:05:41;101111.63;;;-6.70;100.00
20424;BME280;10371;49.042;8.002;2022-12-18T03:06:48;101104.88;;;-6.71;100.00
20424;BME280;10371;49.042;8.002;2022-12-18T03:08:08;101109.06;;;-6.71;100.00
20424;BME280;10371;49.042;8.002;2022-12-18T03:09:41;101110.75;;;-6.73;100.00
20424;BME280;10371;49.042;8.002;2022-12-18T03:10:53;101114.13;;;-6.71;100.00
20424;BME280;10371;49.042;8.002;2022-12-18T03:11:56;101120.94;;;-6.67;100.00
20424;BME280;10371;49.042;8.002;2022-12-18T03:13:27;101118.34;;;-6.72;100.00
20424;BME280;10371;49.042;8.002;2022-12-18T03:14:30;101118.34;;;-6.72;100.00
20424;BME280;10371;49.042;8.002;2022-12-18T03:15:39;101115.84;;;-6.69;100.00
20424;BME280;10371;49.042;8.002;2022-12-18T03:16:43;101112.44;;;-6.72;100.00
20424;BME280;10371;49.042;8.002;2022-12-18T03:18:10;101116.66;;;-6.73;100.00
20424;BME280;10371;49.042;8.002;2022-12-18T03:19:16;101129.28;;;-6.75;100.00
20424;BME280;10371;49.042;8.002;2022-12-18T03:20:20;101121.69;;;-6.75;100.00
20424;BME280;10371;49.042;8.002;2022-12-18T03:21:26;101124.19;;;-6.78;100.00
20424;BME280;10371;49.042;8.002;2022-12-18T03:22:30;101117.44;;;-6.77;100.00
20424;BME280;10371;49.042;8.002;2022-12-18T03:23:40;101123.41;;;-6.73;100.00
20424;BME280;10371;49.042;8.002;2022-12-18T03:24:44;101114.94;;;-6.76;100.00
20424;BME280;10371;49.042;8.002;2022-12-18T03:25:47;101122.50;;;-6.79;100.00
20424;BME280;10371;49.042;8.002;2022-12-18T03:26:52;101119.09;;;-6.81;100.00
20424;BME280;10371;49.042;8.002;2022-12-18T03:27:56;101119.06;;;-6.84;100.00
20424;BME280;10371;49.042;8.002;2022-12-18T03:29:03;101123.31;;;-6.81;100.00
20424;BME280;10371;49.042;8.002;2022-12-18T03:30:09;101111.47;;;-6.84;100.00
20424;BME280;10371;49.042;8.002;2022-12-18T03:31:12;101107.22;;;-6.88;100.00
20424;BME280;10371;49.042;8.002;2022-12-18T03:32:27;101094.50;;;-6.92;100.00
20424;BME280;10371;49.042;8.002;2022-12-18T03:33:34;101103.03;;;-6.84;100.00
20424;BME280;10371;49.042;8.002;2022-12-18T03:34:39;101105.53;;;-6.86;100.00
20424;BME280;10371;49.042;8.002;2022-12-18T03:35:42;101106.38;;;-6.85;100.00
20424;BME280;10371;49.042;8.002;2022-12-18T03:36:43;101108.09;;;-6.84;100.00
20424;BME280;10371;49.042;8.002;2022-12-18T03:37:43;101101.31;;;-6.85;100.00
20424;BME280;10371;49.042;8.002;2022-12-18T03:38:44;101106.38;;;-6.85;100.00
20424;BME280;10371;49.042;8.002;2022-12-18T03:39:44;101114.81;;;-6.88;100.00
20424;BME280;10371;49.042;8.002;2022-12-18T03:40:53;101097.91;;;-6.89;100.00
20424;BME280;10371;49.042;8.002;2022-12-18T03:43:10;101103.81;;;-6.88;100.00
20424;BME280;10371;49.042;8.002;2022-12-18T03:44:15;101101.31;;;-6.87;100.00
20424;BME280;10371;49.042;8.002;2022-12-18T03:45:25;101113.19;;;-6.81;100.00
20424;BME280;10371;49.042;8.002;2022-12-18T03:46:31;101099.59;;;-6.89;100.00
20424;BME280;10371;49.042;8.002;2022-12-18T03:47:40;101106.41;;;-6.84;100.00
20424;BME280;10371;49.042;8.002;2022-12-18T03:48:46;101103.91;;;-6.81;100.00
20424;BME280;10371;49.042;8.002;2022-12-18T03:51:33;101112.41;;;-6.76;100.00
20424;BME280;10371;49.042;8.002;2022-12-18T03:52:42;101113.25;;;-6.77;100.00
20424;BME280;10371;49.042;8.002;2022-12-18T03:53:52;101109.03;;;-6.75;100.00
20424;BME280;10371;49.042;8.002;2022-12-18T03:54:56;101109.91;;;-6.74;100.00
20424;BME280;10371;49.042;8.002;2022-12-18T03:55:59;101114.94;;;-6.76;100.00
20424;BME280;10371;49.042;8.002;2022-12-18T03:57:07;101109.91;;;-6.72;100.00
20424;BME280;10371;49.042;8.002;2022-12-18T03:58:13;101106.53;;;-6.73;100.00
20424;BME280;10371;49.042;8.002;2022-12-18T03:59:16;101109.94;;;-6.71;100.00
20424;BME280;10371;49.042;8.002;2022-12-18T04:00:19;101110.75;;;-6.72;100.00
20424;BME280;10371;49.042;8.002;2022-12-18T04:01:22;101106.59;;;-6.65;100.00
20424;BME280;10371;49.042;8.002;2022-12-18T04:02:24;101104.06;;;-6.64;100.00
20424;BME280;10371;49.042;8.002;2022-12-18T04:03:26;101104.09;;;-6.62;100.00
20424;BME280;10371;49.042;8.002;2022-12-18T04:04:28;101115.88;;;-6.67;100.00
20424;BME280;10371;49.042;8.002;2022-12-18T04:05:29;101104.00;;;-6.73;100.00
20424;BME280;10371;49.042;8.002;2022-12-18T04:06:31;101104.84;;;-6.72;100.00
20424;BME280;10371;49.042;8.002;2022-12-18T04:07:32;101105.72;;;-6.70;100.00
20424;BME280;10371;49.042;8.002;2022-12-18T04:08:33;101098.94;;;-6.71;100.00
20424;BME280;10371;49.042;8.002;2022-12-18T04:09:35;101106.53;;;-6.73;100.00
20424;BME280;10371;49.042;8.002;2022-12-18T04:10:36;101096.38;;;-6.76;100.00
20424;BME280;10371;49.042;8.002;2022-12-18T04:11:37;101100.63;;;-6.73;100.00
20424;BME280;10371;49.042;8.002;2022-12-18T04:12:37;101098.94;;;-6.73;100.00
20424;BME280;10371;49.042;8.002;2022-12-18T04:13:38;101098.88;;;-6.78;100.00
20424;BME280;10371;49.042;8.002;2022-12-18T04:14:39;101103.13;;;-6.75;100.00
20424;BME280;10371;49.042;8.002;2022-12-18T04:15:39;101095.50;;;-6.80;100.00
20424;BME280;10371;49.042;8.002;2022-12-18T04:16:40;101095.44;;;-6.83;100.00
20424;BME280;10371;49.042;8.002;2022-12-18T04:17:47;101100.56;;;-6.78;100.00
20424;BME280;10371;49.042;8.002;2022-12-18T04:18:47;101099.66;;;-6.85;100.00
20424;BME280;10371;49.042;8.002;2022-12-18T04:19:48;101097.94;;;-6.86;100.00
20424;BME280;10371;49.042;8.002;2022-12-18T04:20:48;101103.84;;;-6.85;100.00
20424;BME280;10371;49.042;8.002;2022-12-18T04:21:48;101102.16;;;-6.88;100.00
20424;BME280;10371;49.042;8.002;2022-12-18T04:22:49;101098.72;;;-6.93;100.00
20424;BME280;10371;49.042;8.002;2022-12-18T04:23:49;101106.34;;;-6.88;100.00
20424;BME280;10371;49.042;8.002;2022-12-18T04:24:49;101106.31;;;-6.93;100.00
20424;BME280;10371;49.042;8.002;2022-12-18T04:25:50;101107.16;;;-6.91;100.00
20424;BME280;10371;49.042;8.002;2022-12-18T04:26:50;101103.81;;;-6.90;100.00
20424;BME280;10371;49.042;8.002;2022-12-18T04:27:50;101102.09;;;-6.91;100.00
20424;BME280;10371;49.042;8.002;2022-12-18T04:28:51;101095.34;;;-6.93;100.00
20424;BME280;10371;49.042;8.002;2022-12-18T04:29:51;101098.75;;;-6.90;100.00
20424;BME280;10371;49.042;8.002;2022-12-18T04:30:51;101098.72;;;-6.91;100.00
20424;BME280;10371;49.042;8.002;2022-12-18T04:31:52;101097.91;;;-6.90;100.00
20424;BME280;10371;49.042;8.002;2022-12-18T04:32:52;101099.56;;;-6.92;100.00
20424;BME280;10371;49.042;8.002;2022-12-18T04:33:52;101092.78;;;-6.95;100.00
20424;BME280;10371;49.042;8.002;2022-12-18T04:34:53;101101.22;;;-6.96;100.00
20424;BME280;10371;49.042;8.002;2022-12-18T04:35:53;101103.72;;;-6.99;100.00
20424;BME280;10371;49.042;8.002;2022-12-18T04:36:53;101100.31;;;-7.01;100.00
20424;BME280;10371;49.042;8.002;2022-12-18T04:37:53;101104.56;;;-6.99;100.00
20424;BME280;10371;49.042;8.002;2022-12-18T04:38:54;101117.22;;;-6.97;100.00
20424;BME280;10371;49.042;8.002;2022-12-18T04:39:54;101114.66;;;-7.02;100.00
20424;BME280;10371;49.042;8.002;2022-12-18T04:40:54;101114.63;;;-7.03;100.00
20424;BME280;10371;49.042;8.002;2022-12-18T04:41:54;101114.63;;;-7.05;100.00
20424;BME280;10371;49.042;8.002;2022-12-18T04:42:55;101112.03;;;-7.06;100.00
20424;BME280;10371;49.042;8.002;2022-12-18T04:43:55;101114.53;;;-7.08;100.00
20424;BME280;10371;49.042;8.002;2022-12-18T04:44:55;101112.00;;;-7.09;100.00
20424;BME280;10371;49.042;8.002;2022-12-18T04:46:02;101113.69;;;-7.10;100.00
20424;BME280;10371;49.042;8.002;2022-12-18T04:47:03;101111.13;;;-7.11;100.00
20424;BME280;10371;49.042;8.002;2022-12-18T04:48:03;101113.66;;;-7.11;100.00
20424;BME280;10371;49.042;8.002;2022-12-18T04:49:04;101114.47;;;-7.14;100.00
20424;BME280;10371;49.042;8.002;2022-12-18T04:50:05;101115.31;;;-7.13;100.00
20424;BME280;10371;49.042;8.002;2022-12-18T04:51:06;101113.63;;;-7.14;100.00
20424;BME280;10371;49.042;8.002;2022-12-18T04:52:07;101117.00;;;-7.15;100.00
20424;BME280;10371;49.042;8.002;2022-12-18T04:53:07;101115.28;;;-7.16;100.00
20424;BME280;10371;49.042;8.002;2022-12-18T04:54:07;101114.47;;;-7.15;100.00
20424;BME280;10371;49.042;8.002;2022-12-18T04:55:08;101105.97;;;-7.19;100.00
20424;BME280;10371;49.042;8.002;2022-12-18T04:56:10;101106.84;;;-7.18;100.00
20424;BME280;10371;49.042;8.002;2022-12-18T04:57:11;101110.19;;;-7.21;100.00
20424;BME280;10371;49.042;8.002;2022-12-18T04:58:11;101116.06;;;-7.24;100.00
20424;BME280;10371;49.042;8.002;2022-12-18T04:59:11;101110.16;;;-7.24;100.00
20424;BME280;10371;49.042;8.002;2022-12-18T05:00:12;101121.94;;;-7.25;100.00
20424;BME280;10371;49.042;8.002;2022-12-18T05:01:14;101120.28;;;-7.23;100.00
20424;BME280;10371;49.042;8.002;2022-12-18T05:02:14;101114.38;;;-7.23;100.00
20424;BME280;10371;49.042;8.002;2022-12-18T05:03:15;101113.50;;;-7.27;100.00
20424;BME280;10371;49.042;8.002;2022-12-18T05:04:15;101114.34;;;-7.26;100.00
20424;BME280;10371;49.042;8.002;2022-12-18T05:05:15;101114.34;;;-7.25;100.00
20424;BME280;10371;49.042;8.002;2022-12-18T05:06:15;101109.28;;;-7.26;100.00
20424;BME280;10371;49.042;8.002;2022-12-18T05:07:16;101115.19;;;-7.26;100.00
20424;BME280;10371;49.042;8.002;2022-12-18T05:08:16;101120.22;;;-7.26;100.00
20424;BME280;10371;49.042;8.002;2022-12-18T05:09:17;101118.53;;;-7.27;100.00
20424;BME280;10371;49.042;8.002;2022-12-18T05:10:17;101118.59;;;-7.24;100.00
20424;BME280;10371;49.042;8.002;2022-12-18T05:11:17;101115.19;;;-7.26;100.00
20424;BME280;10371;49.042;8.002;2022-12-18T05:12:18;101120.28;;;-7.23;100.00
20424;BME280;10371;49.042;8.002;2022-12-18T05:13:18;101110.13;;;-7.26;100.00
20424;BME280;10371;49.042;8.002;2022-12-18T05:14:18;101107.66;;;-7.21;100.00
20424;BME280;10371;49.042;8.002;2022-12-18T05:15:19;101108.47;;;-7.24;100.00
20424;BME280;10371;49.042;8.002;2022-12-18T05:16:19;101105.06;;;-7.26;100.00
20424;BME280;10371;49.042;8.002;2022-12-18T05:17:19;101104.22;;;-7.26;100.00
20424;BME280;10371;49.042;8.002;2022-12-18T05:18:20;101110.97;;;-7.27;100.00
20424;BME280;10371;49.042;8.002;2022-12-18T05:19:20;101110.97;;;-7.27;100.00
20424;BME280;10371;49.042;8.002;2022-12-18T05:20:21;101104.97;;;-7.30;100.00
20424;BME280;10371;49.042;8.002;2022-12-18T05:21:21;101124.38;;;-7.31;100.00
20424;BME280;10371;49.042;8.002;2022-12-18T05:22:21;101118.44;;;-7.33;100.00
20424;BME280;10371;49.042;8.002;2022-12-18T05:23:22;101126.91;;;-7.32;100.00
20424;BME280;10371;49.042;8.002;2022-12-18T05:24:23;101123.50;;;-7.33;100.00
20424;BME280;10371;49.042;8.002;2022-12-18T05:25:24;101129.38;;;-7.35;100.00
20424;BME280;10371;49.042;8.002;2022-12-18T05:26:24;101121.81;;;-7.34;100.00
20424;BME280;10371;49.042;8.002;2022-12-18T05:27:24;101110.84;;;-7.34;100.00
20424;BME280;10371;49.042;8.002;2022-12-18T05:28:26;101121.81;;;-7.34;100.00
20424;BME280;10371;49.042;8.002;2022-12-18T05:29:27;101115.94;;;-7.31;100.00
20424;BME280;10371;49.042;8.002;2022-12-18T05:30:27;101120.16;;;-7.32;100.00
20424;BME280;10371;49.042;8.002;2022-12-18T05:31:28;101114.19;;;-7.35;100.00
20424;BME280;10371;49.042;8.002;2022-12-18T05:32:28;101116.75;;;-7.34;100.00
20424;BME280;10371;49.042;8.002;2022-12-18T05:33:31;101111.72;;;-7.32;100.00
20424;BME280;10371;49.042;8.002;2022-12-18T05:34:31;101115.06;;;-7.35;100.00
20424;BME280;10371;49.042;8.002;2022-12-18T05:35:33;101104.94;;;-7.35;100.00
20424;BME280;10371;49.042;8.002;2022-12-18T05:36:33;101098.13;;;-7.39;100.00
20424;BME280;10371;49.042;8.002;2022-12-18T05:37:34;101125.22;;;-7.32;100.00
20424;BME280;10371;49.042;8.002;2022-12-18T05:38:37;101119.31;;;-7.32;100.00
20424;BME280;10371;49.042;8.002;2022-12-18T05:39:37;101118.44;;;-7.34;100.00
20424;BME280;10371;49.042;8.002;2022-12-18T05:40:41;101128.56;;;-7.34;100.00
20424;BME280;10371;49.042;8.002;2022-12-18T05:41:42;101116.75;;;-7.34;100.00
20424;BME280;10371;49.042;8.002;2022-12-18T05:42:42;101131.97;;;-7.32;100.00